sensor_id;sensor_type;location;lat;lon;timestamp;pressure;altitude;pressure_sealevel;temperature;humidity
70684;BME280;58263;48.146;11.440;2023-05-16T00:00:05;95290.56;;;10.94;79.68
70684;BME280;58263;48.146;11.440;2023-05-16T00:02:36;95286.91;;;11.00;79.35
70684;BME280;58263;48.146;11.440;2023-05-16T00:05:03;95285.69;;;10.91;79.60
70684;BME280;58263;48.146;11.440;2023-05-16T00:07:29;95288.38;;;10.91;79.86
70684;BME280;58263;48.146;11.440;2023-05-16T00:09:55;95281.13;;;10.91;79.91
70684;BME280;58263;48.146;11.440;2023-05-16T00:12:21;95284.56;;;10.87;79.71
70684;BME280;58263;48.146;11.440;2023-05-16T00:14:47;95287.56;;;10.90;79.61
70684;BME280;58263;48.146;11.440;2023-05-16T00:17:13;95280.75;;;10.82;80.09
70684;BME280;58263;48.146;11.440;2023-05-16T00:19:38;95285.28;;;10.82;79.88
70684;BME280;58263;48.146;11.440;2023-05-16T00:22:04;95279.66;;;10.83;79.52
70684;BME280;58263;48.146;11.440;2023-05-16T00:24:30;95278.84;;;10.83;79.93
70684;BME280;58263;48.146;11.440;2023-05-16T00:26:56;95281.19;;;10.79;80.37
70684;BME280;58263;48.146;11.440;2023-05-16T00:29:21;95267.78;;;10.79;80.02
70684;BME280;58263;48.146;11.440;2023-05-16T00:31:48;95268.63;;;10.80;80.44
70684;BME280;58263;48.146;11.440;2023-05-16T00:34:14;95270.63;;;10.73;80.67
70684;BME280;58263;48.146;11.440;2023-05-16T00:36:39;95263.88;;;10.70;80.75
70684;BME280;58263;48.146;11.440;2023-05-16T00:39:04;95266.97;;;10.79;80.36
70684;BME280;58263;48.146;11.440;2023-05-16T00:41:30;95267.78;;;10.79;80.47
70684;BME280;58263;48.146;11.440;2023-05-16T00:43:55;95258.34;;;10.77;80.96
70684;BME280;58263;48.146;11.440;2023-05-16T00:46:21;95264.22;;;10.74;80.49
70684;BME280;58263;48.146;11.440;2023-05-16T00:48:46;95262.81;;;10.71;80.68
70684;BME280;58263;48.146;11.440;2023-05-16T00:51:11;95267.63;;;10.69;80.98
70684;BME280;58263;48.146;11.440;2023-05-16T00:53:37;95266.56;;;10.70;80.62
70684;BME280;58263;48.146;11.440;2023-05-16T00:56:04;95269.56;;;10.74;80.67
70684;BME280;58263;48.146;11.440;2023-05-16T00:58:30;95267.06;;;10.67;80.77
70684;BME280;58263;48.146;11.440;2023-05-16T01:00:58;95267.88;;;10.68;81.01
70684;BME280;58263;48.146;11.440;2023-05-16T01:03:23;95267.06;;;10.67;80.85
70684;BME280;58263;48.146;11.440;2023-05-16T01:05:49;95263.06;;;10.70;80.91
70684;BME280;58263;48.146;11.440;2023-05-16T01:08:14;95275.59;;;10.64;80.75
70684;BME280;58263;48.146;11.440;2023-05-16T01:10:51;95272.66;;;10.65;80.62
70684;BME280;58263;48.146;11.440;2023-05-16T01:13:29;95271.84;;;10.65;81.33
70684;BME280;58263;48.146;11.440;2023-05-16T01:16:12;95271.53;;;10.61;81.27
70684;BME280;58263;48.146;11.440;2023-05-16T01:19:00;95258.84;;;10.57;81.36
70684;BME280;58263;48.146;11.440;2023-05-16T01:21:48;95266.31;;;10.55;81.94
70684;BME280;58263;48.146;11.440;2023-05-16T01:24:30;95263.13;;;10.58;81.23
70684;BME280;58263;48.146;11.440;2023-05-16T01:26:58;95259.81;;;10.51;81.82
70684;BME280;58263;48.146;11.440;2023-05-16T01:29:24;95258.09;;;10.44;82.13
70684;BME280;58263;48.146;11.440;2023-05-16T01:31:49;95255.44;;;10.44;82.00
70684;BME280;58263;48.146;11.440;2023-05-16T01:34:15;95250.72;;;10.52;81.52
70684;BME280;58263;48.146;11.440;2023-05-16T01:37:04;95245.84;;;10.48;81.62
70684;BME280;58263;48.146;11.440;2023-05-16T01:39:44;95247.78;;;10.53;81.81
70684;BME280;58263;48.146;11.440;2023-05-16T01:42:14;95242.41;;;10.53;81.56
70684;BME280;58263;48.146;11.440;2023-05-16T01:44:44;95245.91;;;10.54;81.58
70684;BME280;58263;48.146;11.440;2023-05-16T01:47:12;95246.50;;;10.56;81.31
70684;BME280;58263;48.146;11.440;2023-05-16T01:49:56;95244.22;;;10.47;81.28
70684;BME280;58263;48.146;11.440;2023-05-16T01:52:30;95247.38;;;10.44;81.37
70684;BME280;58263;48.146;11.440;2023-05-16T01:54:57;95240.38;;;10.43;81.24
70684;BME280;58263;48.146;11.440;2023-05-16T01:57:25;95244.69;;;10.44;81.16
70684;BME280;58263;48.146;11.440;2023-05-16T01:59:51;95237.78;;;10.48;81.23
70684;BME280;58263;48.146;11.440;2023-05-16T02:02:17;95236.66;;;10.44;81.57
70684;BME280;58263;48.146;11.440;2023-05-16T02:04:43;95244.59;;;10.39;81.69
70684;BME280;58263;48.146;11.440;2023-05-16T02:07:08;95248.09;;;10.40;82.04
70684;BME280;58263;48.146;11.440;2023-05-16T02:09:34;95240.88;;;10.40;82.08
70684;BME280;58263;48.146;11.440;2023-05-16T02:11:59;95249.38;;;10.37;81.89
70684;BME280;58263;48.146;11.440;2023-05-16T02:14:24;95250.66;;;10.35;81.79
70684;BME280;58263;48.146;11.440;2023-05-16T02:16:50;95240.31;;;10.26;81.88
70684;BME280;58263;48.146;11.440;2023-05-16T02:19:15;95245.59;;;10.21;82.22
70684;BME280;58263;48.146;11.440;2023-05-16T02:21:41;95246.00;;;10.13;82.26
70684;BME280;58263;48.146;11.440;2023-05-16T02:24:06;95248.84;;;10.23;82.10
70684;BME280;58263;48.146;11.440;2023-05-16T02:26:31;95249.31;;;10.20;82.42
70684;BME280;58263;48.146;11.440;2023-05-16T02:28:57;95247.69;;;10.19;82.24
70684;BME280;58263;48.146;11.440;2023-05-16T02:31:30;95250.97;;;10.21;82.33
70684;BME280;58263;48.146;11.440;2023-05-16T02:33:56;95254.09;;;10.18;82.48
70684;BME280;58263;48.146;11.440;2023-05-16T02:36:22;95253.31;;;10.18;82.11
70684;BME280;58263;48.146;11.440;2023-05-16T02:38:48;95253.78;;;10.14;82.40
70684;BME280;58263;48.146;11.440;2023-05-16T02:41:13;95247.94;;;10.18;82.01
70684;BME280;58263;48.146;11.440;2023-05-16T02:43:38;95246.31;;;10.17;81.92
70684;BME280;58263;48.146;11.440;2023-05-16T02:46:04;95249.97;;;10.10;82.35
70684;BME280;58263;48.146;11.440;2023-05-16T02:48:30;95253.59;;;10.04;82.80
70684;BME280;58263;48.146;11.440;2023-05-16T02:50:55;95252.63;;;10.10;82.56
70684;BME280;58263;48.146;11.440;2023-05-16T02:53:21;95252.28;;;10.07;82.69
70684;BME280;58263;48.146;11.440;2023-05-16T02:55:46;95249.38;;;10.08;82.39
70684;BME280;58263;48.146;11.440;2023-05-16T02:58:12;95251.50;;;10.06;82.94
70684;BME280;58263;48.146;11.440;2023-05-16T03:00:37;95247.28;;;10.10;82.14
70684;BME280;58263;48.146;11.440;2023-05-16T03:03:03;95251.34;;;10.13;81.89
70684;BME280;58263;48.146;11.440;2023-05-16T03:05:29;95243.31;;;10.13;82.12
70684;BME280;58263;48.146;11.440;2023-05-16T03:07:54;95247.84;;;10.12;82.01
70684;BME280;58263;48.146;11.440;2023-05-16T03:10:19;95247.84;;;10.12;81.79
70684;BME280;58263;48.146;11.440;2023-05-16T03:12:45;95248.31;;;10.09;81.90
70684;BME280;58263;48.146;11.440;2023-05-16T03:15:10;95245.16;;;10.12;81.65
70684;BME280;58263;48.146;11.440;2023-05-16T03:17:35;95244.25;;;10.07;81.69
70684;BME280;58263;48.146;11.440;2023-05-16T03:20:01;95248.88;;;10.11;81.71
70684;BME280;58263;48.146;11.440;2023-05-16T03:22:27;95246.78;;;10.13;81.95
70684;BME280;58263;48.146;11.440;2023-05-16T03:24:53;95242.97;;;10.09;81.84
70684;BME280;58263;48.146;11.440;2023-05-16T03:27:18;95244.75;;;10.04;82.15
70684;BME280;58263;48.146;11.440;2023-05-16T03:29:43;95245.06;;;10.07;81.96
70684;BME280;58263;48.146;11.440;2023-05-16T03:32:10;95244.25;;;10.07;82.03
70684;BME280;58263;48.146;11.440;2023-05-16T03:34:35;95249.75;;;10.00;82.43
70684;BME280;58263;48.146;11.440;2023-05-16T03:37:01;95246.28;;;10.00;82.80
70684;BME280;58263;48.146;11.440;2023-05-16T03:39:26;95248.13;;;9.99;82.51
70684;BME280;58263;48.146;11.440;2023-05-16T03:41:51;95251.78;;;9.93;82.84
70684;BME280;58263;48.146;11.440;2023-05-16T03:44:20;95249.19;;;9.98;82.88
70684;BME280;58263;48.146;11.440;2023-05-16T03:46:45;95242.75;;;9.99;82.88
70684;BME280;58263;48.146;11.440;2023-05-16T03:49:10;95248.13;;;9.99;82.51
70684;BME280;58263;48.146;11.440;2023-05-16T03:51:35;95246.97;;;9.95;83.29
70684;BME280;58263;48.146;11.440;2023-05-16T03:54:01;95245.38;;;9.94;83.35
70684;BME280;58263;48.146;11.440;2023-05-16T03:56:26;95244.03;;;9.96;83.28
70684;BME280;58263;48.146;11.440;2023-05-16T03:58:51;95244.41;;;10.00;82.79
70684;BME280;58263;48.146;11.440;2023-05-16T04:01:17;95240.19;;;10.04;82.51
70684;BME280;58263;48.146;11.440;2023-05-16T04:03:42;95239.78;;;10.12;82.23
70684;BME280;58263;48.146;11.440;2023-05-16T04:06:07;95238.59;;;10.20;81.42
70684;BME280;58263;48.146;11.440;2023-05-16T04:08:33;95237.78;;;10.20;81.54
70684;BME280;58263;48.146;11.440;2023-05-16T04:10:58;95250.47;;;10.24;81.59
70684;BME280;58263;48.146;11.440;2023-05-16T04:13:24;95251.53;;;10.23;81.50
70684;BME280;58263;48.146;11.440;2023-05-16T04:15:49;95243.97;;;10.20;80.98
70684;BME280;58263;48.146;11.440;2023-05-16T04:18:15;95236.72;;;10.21;80.61
70684;BME280;58263;48.146;11.440;2023-05-16T04:20:43;95235.19;;;10.25;80.89
70684;BME280;58263;48.146;11.440;2023-05-16T04:23:09;95242.69;;;10.23;81.06
70684;BME280;58263;48.146;11.440;2023-05-16T04:25:37;95251.03;;;10.26;80.60
70684;BME280;58263;48.146;11.440;2023-05-16T04:28:03;95243.22;;;10.25;80.37
70684;BME280;58263;48.146;11.440;2023-05-16T04:30:28;95254.19;;;10.23;80.86
70684;BME280;58263;48.146;11.440;2023-05-16T04:32:53;95244.38;;;10.29;80.82
70684;BME280;58263;48.146;11.440;2023-05-16T04:35:19;95251.38;;;10.30;80.26
70684;BME280;58263;48.146;11.440;2023-05-16T04:37:46;95247.66;;;10.31;80.00
70684;BME280;58263;48.146;11.440;2023-05-16T04:40:11;95246.13;;;10.35;80.14
70684;BME280;58263;48.146;11.440;2023-05-16T04:42:37;95247.06;;;10.29;80.18
70684;BME280;58263;48.146;11.440;2023-05-16T04:45:02;95250.31;;;10.31;79.94
70684;BME280;58263;48.146;11.440;2023-05-16T04:47:30;95246.00;;;10.30;79.95
70684;BME280;58263;48.146;11.440;2023-05-16T04:49:55;95251.38;;;10.30;80.03
70684;BME280;58263;48.146;11.440;2023-05-16T04:52:21;95252.53;;;10.34;79.77
70684;BME280;58263;48.146;11.440;2023-05-16T04:54:49;95257.53;;;10.42;79.80
70684;BME280;58263;48.146;11.440;2023-05-16T04:57:15;95253.28;;;10.46;79.63
70684;BME280;58263;48.146;11.440;2023-05-16T04:59:40;95259.81;;;10.51;79.24
70684;BME280;58263;48.146;11.440;2023-05-16T05:02:05;95255.09;;;10.58;79.64
70684;BME280;58263;48.146;11.440;2023-05-16T05:04:31;95260.63;;;10.68;79.92
70684;BME280;58263;48.146;11.440;2023-05-16T05:06:57;95253.72;;;10.72;79.35
70684;BME280;58263;48.146;11.440;2023-05-16T05:09:22;95254.63;;;10.78;79.24
70684;BME280;58263;48.146;11.440;2023-05-16T05:11:47;95255.25;;;10.85;78.77
70684;BME280;58263;48.146;11.440;2023-05-16T05:14:12;95254.13;;;10.98;78.55
70684;BME280;58263;48.146;11.440;2023-05-16T05:16:38;95253.97;;;11.05;78.47
70684;BME280;58263;48.146;11.440;2023-05-16T05:19:03;95261.84;;;11.11;78.10
70684;BME280;58263;48.146;11.440;2023-05-16T05:21:28;95254.69;;;11.17;77.38
70684;BME280;58263;48.146;11.440;2023-05-16T05:23:54;95250.19;;;11.23;77.65
70684;BME280;58263;48.146;11.440;2023-05-16T05:26:20;95257.03;;;11.30;77.55
70684;BME280;58263;48.146;11.440;2023-05-16T05:28:47;95261.22;;;11.43;76.93
70684;BME280;58263;48.146;11.440;2023-05-16T05:31:13;95259.13;;;11.45;76.18
70684;BME280;58263;48.146;11.440;2023-05-16T05:33:38;95261.03;;;11.50;76.49
70684;BME280;58263;48.146;11.440;2023-05-16T05:36:04;95263.97;;;11.48;76.76
70684;BME280;58263;48.146;11.440;2023-05-16T05:38:29;95263.63;;;11.62;75.87
70684;BME280;58263;48.146;11.440;2023-05-16T05:40:54;95259.84;;;11.63;76.57
70684;BME280;58263;48.146;11.440;2023-05-16T05:43:20;95247.59;;;11.67;75.91
70684;BME280;58263;48.146;11.440;2023-05-16T05:45:46;95249.25;;;11.73;76.04
70684;BME280;58263;48.146;11.440;2023-05-16T05:48:11;95251.56;;;11.64;75.65
70684;BME280;58263;48.146;11.440;2023-05-16T05:50:37;95248.56;;;11.61;75.57
70684;BME280;58263;48.146;11.440;2023-05-16T05:53:02;95247.59;;;11.67;76.36
70684;BME280;58263;48.146;11.440;2023-05-16T05:55:28;95252.88;;;11.62;76.15
70684;BME280;58263;48.146;11.440;2023-05-16T05:57:54;95243.19;;;11.61;76.01
70684;BME280;58263;48.146;11.440;2023-05-16T06:00:19;95243.13;;;11.56;75.80
70684;BME280;58263;48.146;11.440;2023-05-16T06:02:45;95251.25;;;11.61;75.79
70684;BME280;58263;48.146;11.440;2023-05-16T06:05:11;95244.44;;;11.53;76.48
70684;BME280;58263;48.146;11.440;2023-05-16T06:07:36;95238.88;;;11.60;75.75
70684;BME280;58263;48.146;11.440;2023-05-16T06:10:02;95243.19;;;11.61;76.18
70684;BME280;58263;48.146;11.440;2023-05-16T06:12:29;95241.06;;;11.63;76.30
70684;BME280;58263;48.146;11.440;2023-05-16T06:14:54;95241.56;;;11.60;76.45
70684;BME280;58263;48.146;11.440;2023-05-16T06:17:20;95243.13;;;11.56;77.35
70684;BME280;58263;48.146;11.440;2023-05-16T06:19:45;95244.81;;;11.62;75.86
70684;BME280;58263;48.146;11.440;2023-05-16T06:22:11;95236.50;;;11.63;75.97
70684;BME280;58263;48.146;11.440;2023-05-16T06:24:36;95234.50;;;11.54;76.49
70684;BME280;58263;48.146;11.440;2023-05-16T06:27:01;95231.81;;;11.54;76.56
70684;BME280;58263;48.146;11.440;2023-05-16T06:29:27;95233.22;;;11.56;76.50
70684;BME280;58263;48.146;11.440;2023-05-16T06:31:52;95244.75;;;11.57;76.80
70684;BME280;58263;48.146;11.440;2023-05-16T06:34:17;95241.75;;;11.53;76.25
70684;BME280;58263;48.146;11.440;2023-05-16T06:36:43;95240.19;;;11.57;76.11
70684;BME280;58263;48.146;11.440;2023-05-16T06:39:08;95244.81;;;11.62;76.46
70684;BME280;58263;48.146;11.440;2023-05-16T06:41:34;95249.75;;;11.70;75.75
70684;BME280;58263;48.146;11.440;2023-05-16T06:44:00;95243.13;;;11.78;76.42
70684;BME280;58263;48.146;11.440;2023-05-16T06:46:25;95247.16;;;11.97;75.22
70684;BME280;58263;48.146;11.440;2023-05-16T06:48:50;95252.56;;;12.25;74.47
70684;BME280;58263;48.146;11.440;2023-05-16T06:51:16;95255.13;;;12.42;74.09
70684;BME280;58263;48.146;11.440;2023-05-16T06:53:41;95246.78;;;12.71;73.35
70684;BME280;58263;48.146;11.440;2023-05-16T06:56:06;95245.78;;;12.77;72.01
70684;BME280;58263;48.146;11.440;2023-05-16T06:58:32;95257.34;;;12.77;71.56
70684;BME280;58263;48.146;11.440;2023-05-16T07:00:57;95254.09;;;12.75;70.99
70684;BME280;58263;48.146;11.440;2023-05-16T07:03:22;95253.59;;;12.78;71.20
70684;BME280;58263;48.146;11.440;2023-05-16T07:05:47;95251.47;;;12.85;71.90
70684;BME280;58263;48.146;11.440;2023-05-16T07:08:14;95249.38;;;12.88;71.52
70684;BME280;58263;48.146;11.440;2023-05-16T07:10:40;95243.59;;;13.06;70.28
70684;BME280;58263;48.146;11.440;2023-05-16T07:13:05;95255.00;;;13.24;70.49
70684;BME280;58263;48.146;11.440;2023-05-16T07:15:31;95247.84;;;13.40;69.30
70684;BME280;58263;48.146;11.440;2023-05-16T07:17:56;95243.94;;;13.63;69.48
70684;BME280;58263;48.146;11.440;2023-05-16T07:20:22;95247.78;;;13.77;69.44
70684;BME280;58263;48.146;11.440;2023-05-16T07:22:47;95238.41;;;13.95;68.99
70684;BME280;58263;48.146;11.440;2023-05-16T07:25:13;95254.31;;;13.92;68.56
70684;BME280;58263;48.146;11.440;2023-05-16T07:27:40;95251.63;;;13.86;68.02
70684;BME280;58263;48.146;11.440;2023-05-16T07:30:12;95248.06;;;13.81;68.04
70684;BME280;58263;48.146;11.440;2023-05-16T07:32:37;95249.41;;;13.83;69.51
70684;BME280;58263;48.146;11.440;2023-05-16T07:35:03;95253.13;;;13.67;69.21
70684;BME280;58263;48.146;11.440;2023-05-16T07:37:29;95256.88;;;13.61;69.54
70684;BME280;58263;48.146;11.440;2023-05-16T07:39:54;95256.88;;;13.61;69.50
70684;BME280;58263;48.146;11.440;2023-05-16T07:42:19;95254.69;;;13.52;69.51
70684;BME280;58263;48.146;11.440;2023-05-16T07:44:45;95257.88;;;13.49;69.74
70684;BME280;58263;48.146;11.440;2023-05-16T07:47:10;95253.59;;;13.53;69.69
70684;BME280;58263;48.146;11.440;2023-05-16T07:49:36;95269.16;;;13.41;70.50
70684;BME280;58263;48.146;11.440;2023-05-16T07:52:01;95270.66;;;13.27;70.86
70684;BME280;58263;48.146;11.440;2023-05-16T07:54:26;95282.44;;;13.21;70.39
70684;BME280;58263;48.146;11.440;2023-05-16T07:56:52;95273.69;;;12.98;71.27
70684;BME280;58263;48.146;11.440;2023-05-16T07:59:17;95280.34;;;12.90;71.59
70684;BME280;58263;48.146;11.440;2023-05-16T08:01:42;95282.56;;;12.98;71.69
70684;BME280;58263;48.146;11.440;2023-05-16T08:04:07;95279.69;;;12.78;71.64
70684;BME280;58263;48.146;11.440;2023-05-16T08:06:33;95281.09;;;12.85;72.54
70684;BME280;58263;48.146;11.440;2023-05-16T08:08:58;95281.63;;;12.82;72.73
70684;BME280;58263;48.146;11.440;2023-05-16T08:11:24;95293.69;;;12.80;71.91
70684;BME280;58263;48.146;11.440;2023-05-16T08:13:49;95292.59;;;12.76;72.80
70684;BME280;58263;48.146;11.440;2023-05-16T08:16:15;95299.09;;;12.80;72.75
70684;BME280;58263;48.146;11.440;2023-05-16T08:18:40;95297.47;;;12.79;72.57
70684;BME280;58263;48.146;11.440;2023-05-16T08:21:06;95292.31;;;12.72;73.68
70684;BME280;58263;48.146;11.440;2023-05-16T08:23:33;95289.56;;;12.67;73.59
70684;BME280;58263;48.146;11.440;2023-05-16T08:25:58;95290.81;;;12.59;74.91
70684;BME280;58263;48.146;11.440;2023-05-16T08:28:24;95293.44;;;12.54;75.63
70684;BME280;58263;48.146;11.440;2023-05-16T08:30:49;95287.72;;;12.45;76.41
70684;BME280;58263;48.146;11.440;2023-05-16T08:33:15;95301.13;;;12.40;75.93
70684;BME280;58263;48.146;11.440;2023-05-16T08:35:44;95295.59;;;12.25;76.95
70684;BME280;58263;48.146;11.440;2023-05-16T08:38:09;95304.25;;;12.32;77.56
70684;BME280;58263;48.146;11.440;2023-05-16T08:40:34;95301.56;;;12.32;77.53
70684;BME280;58263;48.146;11.440;2023-05-16T08:43:00;95294.53;;;12.26;77.42
70684;BME280;58263;48.146;11.440;2023-05-16T08:45:26;95296.63;;;12.24;78.22
70684;BME280;58263;48.146;11.440;2023-05-16T08:47:54;95297.44;;;12.24;78.21
70684;BME280;58263;48.146;11.440;2023-05-16T08:50:20;95297.94;;;12.21;78.36
70684;BME280;58263;48.146;11.440;2023-05-16T08:52:52;95305.16;;;12.15;79.53
70684;BME280;58263;48.146;11.440;2023-05-16T08:55:19;95307.34;;;12.18;79.07
70684;BME280;58263;48.146;11.440;2023-05-16T08:57:45;95297.94;;;12.21;79.18
70684;BME280;58263;48.146;11.440;2023-05-16T09:00:11;95300.50;;;12.33;78.50
70684;BME280;58263;48.146;11.440;2023-05-16T09:02:41;95293.00;;;12.35;78.14
70684;BME280;58263;48.146;11.440;2023-05-16T09:05:16;95296.97;;;12.55;78.02
70684;BME280;58263;48.146;11.440;2023-05-16T09:07:42;95293.31;;;12.66;78.88
70684;BME280;58263;48.146;11.440;2023-05-16T09:10:09;95291.78;;;12.75;78.74
70684;BME280;58263;48.146;11.440;2023-05-16T09:12:35;95285.94;;;12.83;77.33
70684;BME280;58263;48.146;11.440;2023-05-16T09:15:02;95280.41;;;13.00;78.39
70684;BME280;58263;48.146;11.440;2023-05-16T09:17:36;95275.22;;;13.26;77.66
70684;BME280;58263;48.146;11.440;2023-05-16T09:20:12;95279.50;;;13.60;76.92
70684;BME280;58263;48.146;11.440;2023-05-16T09:22:38;95271.78;;;13.79;73.94
70684;BME280;58263;48.146;11.440;2023-05-16T09:25:04;95272.06;;;13.82;74.34
70684;BME280;58263;48.146;11.440;2023-05-16T09:27:30;95282.72;;;13.62;76.06
70684;BME280;58263;48.146;11.440;2023-05-16T09:29:57;95276.88;;;13.75;75.81
70684;BME280;58263;48.146;11.440;2023-05-16T09:32:23;95279.03;;;13.73;75.54
70684;BME280;58263;48.146;11.440;2023-05-16T09:34:49;95287.13;;;13.73;74.45
70684;BME280;58263;48.146;11.440;2023-05-16T09:37:16;95284.94;;;13.65;75.70
70684;BME280;58263;48.146;11.440;2023-05-16T09:39:49;95281.75;;;13.78;75.33
70684;BME280;58263;48.146;11.440;2023-05-16T09:42:16;95276.97;;;13.96;75.99
70684;BME280;58263;48.146;11.440;2023-05-16T09:44:48;95274.25;;;13.85;75.78
70684;BME280;58263;48.146;11.440;2023-05-16T09:47:15;95275.41;;;14.05;74.66
70684;BME280;58263;48.146;11.440;2023-05-16T09:49:41;95277.53;;;13.98;74.00
70684;BME280;58263;48.146;11.440;2023-05-16T09:52:08;95275.41;;;14.05;74.40
70684;BME280;58263;48.146;11.440;2023-05-16T09:54:34;95279.22;;;14.14;73.88
70684;BME280;58263;48.146;11.440;2023-05-16T09:57:00;95275.44;;;14.15;72.44
70684;BME280;58263;48.146;11.440;2023-05-16T09:59:29;95274.63;;;14.10;75.66
70684;BME280;58263;48.146;11.440;2023-05-16T10:01:57;95278.66;;;14.07;74.21
70684;BME280;58263;48.146;11.440;2023-05-16T10:04:25;95282.41;;;14.06;74.40
70684;BME280;58263;48.146;11.440;2023-05-16T10:06:50;95285.59;;;13.93;74.00
70684;BME280;58263;48.146;11.440;2023-05-16T10:09:17;95287.50;;;13.92;73.96
70684;BME280;58263;48.146;11.440;2023-05-16T10:11:44;95287.63;;;13.70;75.17
70684;BME280;58263;48.146;11.440;2023-05-16T10:14:10;95277.94;;;13.69;74.18
70684;BME280;58263;48.146;11.440;2023-05-16T10:16:36;95283.09;;;13.76;74.46
70684;BME280;58263;48.146;11.440;2023-05-16T10:19:02;95288.47;;;13.71;75.22
70684;BME280;58263;48.146;11.440;2023-05-16T10:21:28;95290.81;;;13.62;75.54
70684;BME280;58263;48.146;11.440;2023-05-16T10:23:56;95303.19;;;13.58;75.16
70684;BME280;58263;48.146;11.440;2023-05-16T10:26:22;95296.66;;;13.43;76.38
70684;BME280;58263;48.146;11.440;2023-05-16T10:28:49;95300.28;;;13.32;77.33
70684;BME280;58263;48.146;11.440;2023-05-16T10:31:15;95299.44;;;13.26;76.77
70684;BME280;58263;48.146;11.440;2023-05-16T10:33:41;95298.97;;;13.34;76.66
70684;BME280;58263;48.146;11.440;2023-05-16T10:36:08;95315.06;;;13.24;77.24
70684;BME280;58263;48.146;11.440;2023-05-16T10:38:35;95305.84;;;13.15;77.34
70684;BME280;58263;48.146;11.440;2023-05-16T10:41:01;95311.53;;;13.18;78.20
70684;BME280;58263;48.146;11.440;2023-05-16T10:43:28;95310.44;;;13.19;78.00
70684;BME280;58263;48.146;11.440;2023-05-16T10:46:06;95318.03;;;13.23;77.88
70684;BME280;58263;48.146;11.440;2023-05-16T10:48:33;95309.69;;;13.24;77.53
70684;BME280;58263;48.146;11.440;2023-05-16T10:50:59;95307.22;;;13.17;78.09
70684;BME280;58263;48.146;11.440;2023-05-16T10:53:32;95309.31;;;13.10;78.24
70684;BME280;58263;48.146;11.440;2023-05-16T10:58:38;95312.25;;;13.09;79.25
70684;BME280;58263;48.146;11.440;2023-05-16T11:01:28;95311.22;;;13.15;78.62
70684;BME280;58263;48.146;11.440;2023-05-16T11:11:59;95304.63;;;13.00;79.61
70684;BME280;58263;48.146;11.440;2023-05-16T11:17:09;95298.13;;;12.96;79.76
70684;BME280;58263;48.146;11.440;2023-05-16T11:19:49;95304.31;;;12.92;79.28
70684;BME280;58263;48.146;11.440;2023-05-16T11:27:26;95304.66;;;12.73;80.13
70684;BME280;58263;48.146;11.440;2023-05-16T11:29:54;95307.41;;;12.78;80.02
70684;BME280;58263;48.146;11.440;2023-05-16T11:32:22;95311.09;;;12.67;80.32
70684;BME280;58263;48.146;11.440;2023-05-16T11:34:49;95308.66;;;12.65;81.05
70684;BME280;58263;48.146;11.440;2023-05-16T11:37:15;95309.38;;;12.56;81.46
70684;BME280;58263;48.146;11.440;2023-05-16T11:39:41;95313.47;;;12.63;80.99
70684;BME280;58263;48.146;11.440;2023-05-16T11:42:07;95311.47;;;12.54;81.81
70684;BME280;58263;48.146;11.440;2023-05-16T11:44:33;95314.88;;;12.44;81.11
70684;BME280;58263;48.146;11.440;2023-05-16T11:47:00;95313.50;;;12.41;81.85
70684;BME280;58263;48.146;11.440;2023-05-16T11:49:29;95306.69;;;12.33;82.17
70684;BME280;58263;48.146;11.440;2023-05-16T11:51:55;95304.84;;;12.34;82.85
70684;BME280;58263;48.146;11.440;2023-05-16T11:54:21;95305.13;;;12.38;83.29
70684;BME280;58263;48.146;11.440;2023-05-16T11:56:47;95294.78;;;12.51;82.39
70684;BME280;58263;48.146;11.440;2023-05-16T11:59:13;95294.09;;;12.61;82.63
70684;BME280;58263;48.146;11.440;2023-05-16T12:01:39;95299.91;;;12.80;82.17
70684;BME280;58263;48.146;11.440;2023-05-16T12:04:09;95286.69;;;13.11;82.78
70684;BME280;58263;48.146;11.440;2023-05-16T12:06:37;95288.78;;;13.37;81.88
70684;BME280;58263;48.146;11.440;2023-05-16T12:09:03;95288.13;;;13.57;81.22
70684;BME280;58263;48.146;11.440;2023-05-16T12:11:38;95279.16;;;14.04;79.60
70684;BME280;58263;48.146;11.440;2023-05-16T12:14:05;95274.97;;;14.39;77.74
70684;BME280;58263;48.146;11.440;2023-05-16T12:16:31;95276.94;;;14.75;76.01
70684;BME280;58263;48.146;11.440;2023-05-16T12:18:58;95266.72;;;15.02;75.86
70684;BME280;58263;48.146;11.440;2023-05-16T12:21:23;95275.06;;;15.32;75.44
70684;BME280;58263;48.146;11.440;2023-05-16T12:23:49;95277.47;;;15.44;74.69
70684;BME280;58263;48.146;11.440;2023-05-16T12:26:14;95279.34;;;15.59;73.63
70684;BME280;58263;48.146;11.440;2023-05-16T12:28:42;95280.13;;;15.69;72.90
70684;BME280;58263;48.146;11.440;2023-05-16T12:31:18;95270.41;;;15.63;72.91
70684;BME280;58263;48.146;11.440;2023-05-16T12:33:44;95274.97;;;15.83;72.84
70684;BME280;58263;48.146;11.440;2023-05-16T12:36:12;95270.38;;;15.74;73.18
70684;BME280;58263;48.146;11.440;2023-05-16T12:38:38;95270.38;;;15.84;72.37
70684;BME280;58263;48.146;11.440;2023-05-16T12:41:03;95273.06;;;15.89;70.99
70684;BME280;58263;48.146;11.440;2023-05-16T12:43:29;95272.69;;;16.16;71.25
70684;BME280;58263;48.146;11.440;2023-05-16T12:45:55;95267.25;;;16.21;69.99
70684;BME280;58263;48.146;11.440;2023-05-16T12:48:22;95270.88;;;16.56;70.28
70684;BME280;58263;48.146;11.440;2023-05-16T12:50:48;95268.56;;;16.74;69.21
70684;BME280;58263;48.146;11.440;2023-05-16T12:53:15;95268.75;;;16.88;68.64
70684;BME280;58263;48.146;11.440;2023-05-16T12:55:42;95272.25;;;16.94;68.12
70684;BME280;58263;48.146;11.440;2023-05-16T12:58:08;95266.75;;;17.04;68.38
70684;BME280;58263;48.146;11.440;2023-05-16T13:00:34;95260.97;;;17.16;68.08
70684;BME280;58263;48.146;11.440;2023-05-16T13:03:00;95251.97;;;17.20;67.77
70684;BME280;58263;48.146;11.440;2023-05-16T13:05:26;95260.50;;;17.38;66.79